Wilson Skaw — C6SQ9 — position and weather

sailwx.info

Track history (hours):
 
Tides and Currents Weather Stations Pressure Air Temp Water Temp Dewpoint Dewpoint Depression Visibility Wind Speed Wind Dir Waves Ship Positions

Wilson Skaw

Last reported at 2013-Aug-25 06:05 UTC. Time now 2014-Oct-23 08:46 UTC.
Position N 51°03' E 002°17'.
Warning: this ship's position is years out of date!

Length 113 m; draft 5.1 m.

Type: Cargo ship. MMSI: 311437000.

Date/timePositionNaut miles runAvg speedWind from/ knotsBaromVisibWave heightAir tempDewpointWater temp
2013-Aug-25 06:05N 51°03' E 002°17'0 0.0
2013-Aug-25 05:32N 51°03' E 002°17'0 0.0
2013-Aug-24 20:21N 51°03' E 002°17'1 1.2
2013-Aug-24 19:27N 51°03' E 002°19'2 1.7
2013-Aug-24 18:33N 51°04' E 002°21'1211.8
2013-Aug-24 17:30N 51°03' E 002°01'1110.3
2013-Aug-24 16:27N 51°02' E 001°44'8 8.3
2013-Aug-24 15:33N 50°57' E 001°35'3410.0
2013-Aug-24 12:06N 50°31' E 001°00'5 9.8
2013-Aug-24 11:33N 50°29' E 000°52'1010.3
2013-Aug-24 10:33N 50°26' E 000°37'1110.6
2013-Aug-24 09:33N 50°23' E 000°21'22910.9
2013-Aug-23 12:26N 48°57' W 005°07'17 8.8
2013-Aug-23 10:32N 48°49' W 005°29'10 8.7
2013-Aug-23 09:23N 48°42' W 005°41'3110.4
2013-Aug-23 06:23N 48°14' W 006°02'1011.1
2013-Aug-23 05:31N 48°06' W 006°09'22710.8
2013-Aug-22 08:33N 44°44' W 008°40'1211.8
2013-Aug-22 07:33N 44°34' W 008°47'1410.9
2013-Aug-22 06:17N 44°21' W 008°56'810.6
2013-Aug-22 05:33N 44°14' W 009°01'1410.8
2013-Aug-22 04:18N 44°02' W 009°10'810.3
2013-Aug-22 03:31N 43°55' W 009°15'1010.3
2013-Aug-22 02:33N 43°46' W 009°21'1111.0
2013-Aug-22 01:32N 43°36' W 009°28'1111.1
2013-Aug-22 00:33N 43°27' W 009°36'1110.8
2013-Aug-21 23:32N 43°17' W 009°42'1010.6
2013-Aug-21 22:33N 43°07' W 009°46'1110.7
2013-Aug-21 21:33N 42°56' W 009°46'1110.5
2013-Aug-21 20:33N 42°46' W 009°47'1111.0
2013-Aug-21 19:33N 42°35' W 009°47'1110.1
2013-Aug-21 18:31N 42°24' W 009°47'1010.5
2013-Aug-21 17:31N 42°14' W 009°47'1010.8
2013-Aug-21 16:33N 42°03' W 009°48'1110.9
2013-Aug-21 15:33N 41°52' W 009°48'1111.1
2013-Aug-21 14:33N 41°41' W 009°48'1111.0
2013-Aug-21 13:33N 41°30' W 009°48'1110.9
2013-Aug-21 12:33N 41°19' W 009°48'1410.6
2013-Aug-21 11:15N 41°06' W 009°49'710.5
2013-Aug-21 10:33N 40°58' W 009°49'1110.6
2013-Aug-21 09:33N 40°48' W 009°49'1110.5
2013-Aug-21 08:32N 40°37' W 009°49'1111.0
2013-Aug-21 07:33N 40°26' W 009°49'1212.2
2013-Aug-21 06:33N 40°14' W 009°49'1110.6
2013-Aug-21 05:33N 40°03' W 009°50'1110.7
2013-Aug-21 04:33N 39°53' W 009°50'1110.6
2013-Aug-21 03:31N 39°42' W 009°50'2510.8
2013-Aug-21 01:11N 39°16' W 009°50'710.8
2013-Aug-21 00:33N 39°10' W 009°50'1110.5
2013-Aug-20 23:33N 38°59' W 009°50'1110.8
2013-Aug-20 22:33N 38°48' W 009°51'1110.7
2013-Aug-20 21:33N 38°38' W 009°49'1010.3
2013-Aug-20 20:33N 38°28' W 009°47'1010.0
2013-Aug-20 19:32N 38°18' W 009°44'10 9.8
2013-Aug-20 18:33N 38°08' W 009°41'1010.1
2013-Aug-20 17:33N 37°59' W 009°38'10 9.8
2013-Aug-20 16:33N 37°49' W 009°35'10 9.5
2013-Aug-20 15:33N 37°40' W 009°33'1010.2
2013-Aug-20 14:33N 37°30' W 009°30'1010.3
2013-Aug-20 13:33N 37°20' W 009°27'1010.1
2013-Aug-20 12:33N 37°10' W 009°24'1110.2
2013-Aug-20 11:32N 36°60' W 009°21'10 9.9
2013-Aug-20 10:33N 36°51' W 009°17'1010.0
2013-Aug-20 09:33N 36°44' W 009°07'1111.2
2013-Aug-20 08:33N 36°41' W 008°54'1211.9
2013-Aug-20 07:33N 36°37' W 008°40'1110.8
2013-Aug-20 06:33N 36°33' W 008°27'1111.0
2013-Aug-20 05:33N 36°30' W 008°14'1111.1
2013-Aug-20 04:33N 36°27' W 008°01'1111.3
2013-Aug-20 03:33N 36°23' W 007°48'1111.3
2013-Aug-20 02:33N 36°20' W 007°34'262 7.1
2013-Aug-18 13:23N 36°27' W 002°09'7310.4
2013-Aug-18 06:20N 37°04' W 000°50'1110.4
2013-Aug-18 05:15N 37°09' W 000°38'710.2
2013-Aug-18 04:32N 37°13' W 000°30'1010.0
2013-Aug-18 03:32N 37°18' W 000°19'10 9.8
2013-Aug-18 02:32N 37°23' W 000°08'10 9.8
2013-Aug-18 01:33N 37°28' E 000°02'4110.2
2013-Aug-17 21:33N 37°49' E 000°47'1210.6
2013-Aug-17 20:25N 37°55' E 001°00'5310.0
2013-Aug-17 15:09N 38°21' E 001°58'1710.5
2013-Aug-17 13:32N 38°30' E 002°17'1010.2
2013-Aug-17 12:33N 38°35' E 002°28'1010.2
2013-Aug-17 11:33N 38°40' E 002°39'1010.2
2013-Aug-17 10:33N 38°45' E 002°50'1310.4
2013-Aug-17 09:18N 38°52' E 003°05'1210.5
2013-Aug-17 08:12N 38°58' E 003°18'1010.4
2013-Aug-17 07:13N 39°03' E 003°29'710.3
2013-Aug-17 06:33N 39°06' E 003°37'1110.2
2013-Aug-17 05:31N 39°12' E 003°48'1110.4
2013-Aug-17 04:28N 39°17' E 004°00'2110.5
2013-Aug-17 02:29N 39°28' E 004°24'1110.6
2013-Aug-17 01:25N 39°33' E 004°36'1010.6
2013-Aug-17 00:27N 39°39' E 004°48'1010.5
2013-Aug-16 23:29N 39°44' E 004°59'1010.4
2013-Aug-16 22:33N 39°49' E 005°10'1010.4
2013-Aug-16 21:33N 39°54' E 005°22'1110.6
2013-Aug-16 20:33N 39°59' E 005°34'1010.4
2013-Aug-16 19:34N 40°04' E 005°45'1110.5
2013-Aug-16 18:33N 40°10' E 005°57'1010.2
2013-Aug-16 17:33N 40°15' E 006°09'10 9.8
2013-Aug-16 16:33N 40°20' E 006°20'20 9.8
2013-Aug-16 14:33N 40°30' E 006°42'1010.1
2013-Aug-16 13:33N 40°35' E 006°54'1010.3
2013-Aug-16 12:32N 40°40' E 007°05'1010.1
2013-Aug-16 11:32N 40°45' E 007°17'1010.3
2013-Aug-16 10:33N 40°50' E 007°29'1110.4
2013-Aug-16 09:31N 40°56' E 007°41'1110.3
2013-Aug-16 08:27N 41°01' E 007°53'1010.4
2013-Aug-16 07:32N 41°06' E 008°04'1010.6
2013-Aug-16 06:33N 41°11' E 008°16'1010.4
2013-Aug-16 05:33N 41°13' E 008°30'11 9.9
2013-Aug-16 04:26N 41°16' E 008°44'10 9.9
2013-Aug-16 03:27N 41°18' E 008°57'58 9.5
2013-Aug-15 21:20N 41°59' E 009°52'1810.0
2013-Aug-15 19:33N 42°14' E 010°04'1110.2
2013-Aug-15 18:26N 42°24' E 010°12'910.0
2013-Aug-15 17:32N 42°31' E 010°19'1310.1
2013-Aug-15 16:16N 42°41' E 010°29'910.0
2013-Aug-15 15:23N 42°50' E 010°34'  
Track history (hours):
 
Tides and Currents Weather Stations Pressure Air Temp Water Temp Dewpoint Dewpoint Depression Visibility Wind Speed Wind Dir Waves Ship Positions

Wilson Skaw

Last reported at 2013-Aug-25 06:05 UTC. Time now 2014-Oct-23 08:46 UTC.
Position N 51°03' E 002°17'.
Warning: this ship's position is years out of date!

Length 113 m; draft 5.1 m.

Type: Cargo ship. MMSI: 311437000.

Date/timePositionNaut miles runAvg speedWind from/ knotsBaromVisibWave heightAir tempDewpointWater temp
2013-Aug-25 06:05N 51°03' E 002°17'0 0.0
2013-Aug-25 05:32N 51°03' E 002°17'0 0.0
2013-Aug-24 20:21N 51°03' E 002°17'1 1.2
2013-Aug-24 19:27N 51°03' E 002°19'2 1.7
2013-Aug-24 18:33N 51°04' E 002°21'1211.8
2013-Aug-24 17:30N 51°03' E 002°01'1110.3
2013-Aug-24 16:27N 51°02' E 001°44'8 8.3
2013-Aug-24 15:33N 50°57' E 001°35'3410.0
2013-Aug-24 12:06N 50°31' E 001°00'5 9.8
2013-Aug-24 11:33N 50°29' E 000°52'1010.3
2013-Aug-24 10:33N 50°26' E 000°37'1110.6
2013-Aug-24 09:33N 50°23' E 000°21'22910.9
2013-Aug-23 12:26N 48°57' W 005°07'17 8.8
2013-Aug-23 10:32N 48°49' W 005°29'10 8.7
2013-Aug-23 09:23N 48°42' W 005°41'3110.4
2013-Aug-23 06:23N 48°14' W 006°02'1011.1
2013-Aug-23 05:31N 48°06' W 006°09'22710.8
2013-Aug-22 08:33N 44°44' W 008°40'1211.8
2013-Aug-22 07:33N 44°34' W 008°47'1410.9
2013-Aug-22 06:17N 44°21' W 008°56'810.6
2013-Aug-22 05:33N 44°14' W 009°01'1410.8
2013-Aug-22 04:18N 44°02' W 009°10'810.3
2013-Aug-22 03:31N 43°55' W 009°15'1010.3
2013-Aug-22 02:33N 43°46' W 009°21'1111.0
2013-Aug-22 01:32N 43°36' W 009°28'1111.1
2013-Aug-22 00:33N 43°27' W 009°36'1110.8
2013-Aug-21 23:32N 43°17' W 009°42'1010.6
2013-Aug-21 22:33N 43°07' W 009°46'1110.7
2013-Aug-21 21:33N 42°56' W 009°46'1110.5
2013-Aug-21 20:33N 42°46' W 009°47'1111.0
2013-Aug-21 19:33N 42°35' W 009°47'1110.1
2013-Aug-21 18:31N 42°24' W 009°47'1010.5
2013-Aug-21 17:31N 42°14' W 009°47'1010.8
2013-Aug-21 16:33N 42°03' W 009°48'1110.9
2013-Aug-21 15:33N 41°52' W 009°48'1111.1
2013-Aug-21 14:33N 41°41' W 009°48'1111.0
2013-Aug-21 13:33N 41°30' W 009°48'1110.9
2013-Aug-21 12:33N 41°19' W 009°48'1410.6
2013-Aug-21 11:15N 41°06' W 009°49'710.5
2013-Aug-21 10:33N 40°58' W 009°49'1110.6
2013-Aug-21 09:33N 40°48' W 009°49'1110.5
2013-Aug-21 08:32N 40°37' W 009°49'1111.0
2013-Aug-21 07:33N 40°26' W 009°49'1212.2
2013-Aug-21 06:33N 40°14' W 009°49'1110.6
2013-Aug-21 05:33N 40°03' W 009°50'1110.7
2013-Aug-21 04:33N 39°53' W 009°50'1110.6
2013-Aug-21 03:31N 39°42' W 009°50'2510.8
2013-Aug-21 01:11N 39°16' W 009°50'710.8
2013-Aug-21 00:33N 39°10' W 009°50'1110.5
2013-Aug-20 23:33N 38°59' W 009°50'1110.8
2013-Aug-20 22:33N 38°48' W 009°51'1110.7
2013-Aug-20 21:33N 38°38' W 009°49'1010.3
2013-Aug-20 20:33N 38°28' W 009°47'1010.0
2013-Aug-20 19:32N 38°18' W 009°44'10 9.8
2013-Aug-20 18:33N 38°08' W 009°41'1010.1
2013-Aug-20 17:33N 37°59' W 009°38'10 9.8
2013-Aug-20 16:33N 37°49' W 009°35'10 9.5
2013-Aug-20 15:33N 37°40' W 009°33'1010.2
2013-Aug-20 14:33N 37°30' W 009°30'1010.3
2013-Aug-20 13:33N 37°20' W 009°27'1010.1
2013-Aug-20 12:33N 37°10' W 009°24'1110.2
2013-Aug-20 11:32N 36°60' W 009°21'10 9.9
2013-Aug-20 10:33N 36°51' W 009°17'1010.0
2013-Aug-20 09:33N 36°44' W 009°07'1111.2
2013-Aug-20 08:33N 36°41' W 008°54'1211.9
2013-Aug-20 07:33N 36°37' W 008°40'1110.8
2013-Aug-20 06:33N 36°33' W 008°27'1111.0
2013-Aug-20 05:33N 36°30' W 008°14'1111.1
2013-Aug-20 04:33N 36°27' W 008°01'1111.3
2013-Aug-20 03:33N 36°23' W 007°48'1111.3
2013-Aug-20 02:33N 36°20' W 007°34'262 7.1
2013-Aug-18 13:23N 36°27' W 002°09'7310.4
2013-Aug-18 06:20N 37°04' W 000°50'1110.4
2013-Aug-18 05:15N 37°09' W 000°38'710.2
2013-Aug-18 04:32N 37°13' W 000°30'1010.0
2013-Aug-18 03:32N 37°18' W 000°19'10 9.8
2013-Aug-18 02:32N 37°23' W 000°08'10 9.8
2013-Aug-18 01:33N 37°28' E 000°02'4110.2
2013-Aug-17 21:33N 37°49' E 000°47'1210.6
2013-Aug-17 20:25N 37°55' E 001°00'5310.0
2013-Aug-17 15:09N 38°21' E 001°58'1710.5
2013-Aug-17 13:32N 38°30' E 002°17'1010.2
2013-Aug-17 12:33N 38°35' E 002°28'1010.2
2013-Aug-17 11:33N 38°40' E 002°39'1010.2
2013-Aug-17 10:33N 38°45' E 002°50'1310.4
2013-Aug-17 09:18N 38°52' E 003°05'1210.5
2013-Aug-17 08:12N 38°58' E 003°18'1010.4
2013-Aug-17 07:13N 39°03' E 003°29'710.3
2013-Aug-17 06:33N 39°06' E 003°37'1110.2
2013-Aug-17 05:31N 39°12' E 003°48'1110.4
2013-Aug-17 04:28N 39°17' E 004°00'2110.5
2013-Aug-17 02:29N 39°28' E 004°24'1110.6
2013-Aug-17 01:25N 39°33' E 004°36'1010.6
2013-Aug-17 00:27N 39°39' E 004°48'1010.5
2013-Aug-16 23:29N 39°44' E 004°59'1010.4
2013-Aug-16 22:33N 39°49' E 005°10'1010.4
2013-Aug-16 21:33N 39°54' E 005°22'1110.6
2013-Aug-16 20:33N 39°59' E 005°34'1010.4
2013-Aug-16 19:34N 40°04' E 005°45'1110.5
2013-Aug-16 18:33N 40°10' E 005°57'1010.2
2013-Aug-16 17:33N 40°15' E 006°09'10 9.8
2013-Aug-16 16:33N 40°20' E 006°20'20 9.8
2013-Aug-16 14:33N 40°30' E 006°42'1010.1
2013-Aug-16 13:33N 40°35' E 006°54'1010.3
2013-Aug-16 12:32N 40°40' E 007°05'1010.1
2013-Aug-16 11:32N 40°45' E 007°17'1010.3
2013-Aug-16 10:33N 40°50' E 007°29'1110.4
2013-Aug-16 09:31N 40°56' E 007°41'1110.3
2013-Aug-16 08:27N 41°01' E 007°53'1010.4
2013-Aug-16 07:32N 41°06' E 008°04'1010.6
2013-Aug-16 06:33N 41°11' E 008°16'1010.4
2013-Aug-16 05:33N 41°13' E 008°30'11 9.9
2013-Aug-16 04:26N 41°16' E 008°44'10 9.9
2013-Aug-16 03:27N 41°18' E 008°57'58 9.5
2013-Aug-15 21:20N 41°59' E 009°52'1810.0
2013-Aug-15 19:33N 42°14' E 010°04'1110.2
2013-Aug-15 18:26N 42°24' E 010°12'910.0
2013-Aug-15 17:32N 42°31' E 010°19'1310.1
2013-Aug-15 16:16N 42°41' E 010°29'910.0
2013-Aug-15 15:23N 42°50' E 010°34'  

Dump ship's entire track history